Portada
METAR-TAF:

METAR-TAF

Aeroports :

Grand Turk Island, Illes Turks i Caicos

latitud: 21-26-40N, longitud: 071-08-32W, altitud: 4 m

Observació

L'informe es va fer fa 1 hora i 42 minuts, a les 01:00 UTC
Vent 3 kt del Nord/Nord-Oest
Temperatura 24°C
Humitat 83%
Pressió 1015 hPa
Visibilitat 10 km o més
Núvols disperses a una alçada de 1500 ft, Cumulus congestus.

METAR: MBGT 300100Z 34003KT 9999 SCT015TCU 24/21 Q1015

Hora: 21:42 (02:42 UTC)

Pronòstic

L'informe es va fer fa 4 hores i 42 minuts, a les 22:00 UTC
Pronòstic vàlid del 30 a les 00 UTC al 30 a les 24 UTC
Vent 3 kt del Nord
Visibilitat 10 km o més
Núvols disperses a una alçada de 2500 ft
Evolucionant progressivament
l' 30 a les 13 UTC al 30 a les 15 UTC
Vent 10 kt del Nord/Nord-Est

TAF: MBGT 292200Z 3000/3024 36003KT 9999 SCT025 BECMG 3013/3015 02010KT

Observacions i pronòstics meteorològics de més de 4000 aeroports (METAR i TAF).

Les estacions disponibles són els punts grocs i vermells al mapa.

Posi el ratolí al punt desitjat per veure el nom de l'estació.

Feu clic per veure les observacions i els pronòstics meteorològics.

Per canviar el mapa: feu clic els botons verds amb una creu de color negre per apropar; al botó verd amb un guió per allunyar la imatge; o en les fletxes verdes per a mapes adjacents.


METAR-TAF: